Time;durP1;ratioP1;P1;durP2;ratioP2;P2;SDS_P1;SDS_P2;PMS_P1;PMS_P2;Temp;Humidity;BMP_temperature;BMP_pressure;BME280_temperature;BME280_humidity;BME280_pressure;Samples;Min_cycle;Max_cycle;Signal;HPM_P1;HPM_P2
2022/07/20 00:00:09;;;;;;;6.40;3.33;;;27.40;55.80;;;;;;4973810;28;20026;-71
2022/07/20 00:02:36;;;;;;;8.10;3.67;;;27.50;55.70;;;;;;4974338;28;20022;-68
2022/07/20 00:05:02;;;;;;;7.03;3.40;;;27.40;55.60;;;;;;4973743;28;20029;-69
2022/07/20 00:07:28;;;;;;;7.18;3.50;;;27.40;55.50;;;;;;4973883;28;20047;-68
2022/07/20 00:12:38;;;;;;;7.38;3.50;;;27.40;55.40;;;;;;4973983;28;20038;-68
2022/07/20 00:15:04;;;;;;;7.90;3.55;;;27.50;55.40;;;;;;4972545;28;20035;-68
2022/07/20 00:17:29;;;;;;;8.50;3.40;;;27.50;55.30;;;;;;4973024;28;20102;-71
2022/07/20 00:19:55;;;;;;;8.15;3.30;;;27.50;55.30;;;;;;4973913;28;20102;-67
2022/07/20 00:22:20;;;;;;;8.50;3.10;;;27.50;55.40;;;;;;4973796;28;20065;-68
2022/07/20 00:24:46;;;;;;;12.77;3.80;;;27.40;55.40;;;;;;4973394;28;20428;-71
2022/07/20 00:27:11;;;;;;;8.85;3.25;;;27.40;55.50;;;;;;4973609;28;20050;-72
2022/07/20 00:29:37;;;;;;;6.55;3.30;;;27.40;55.60;;;;;;4973522;28;20054;-69
2022/07/20 00:32:03;;;;;;;12.10;5.38;;;27.40;55.60;;;;;;4973790;28;20035;-68
2022/07/20 00:34:28;;;;;;;10.57;4.80;;;27.30;56.50;;;;;;4972893;28;20027;-70
2022/07/20 00:36:54;;;;;;;14.25;4.22;;;27.20;56.60;;;;;;4973425;28;20030;-71
2022/07/20 00:39:19;;;;;;;5.80;3.33;;;27.20;56.90;;;;;;4973637;28;20018;-70
2022/07/20 00:41:45;;;;;;;5.57;3.60;;;27.10;57.00;;;;;;4973190;28;20027;-71
2022/07/20 00:44:11;;;;;;;6.07;3.17;;;27.10;57.30;;;;;;4973453;28;20101;-70
2022/07/20 00:46:39;;;;;;;7.35;3.50;;;27.00;57.40;;;;;;4971661;28;20050;-67
2022/07/20 00:49:08;;;;;;;5.72;3.40;;;27.00;57.60;;;;;;4973206;28;20138;-68
2022/07/20 00:51:34;;;;;;;7.13;4.07;;;27.00;57.80;;;;;;4973082;28;20424;-68
2022/07/20 00:54:00;;;;;;;6.97;3.58;;;26.90;57.80;;;;;;4973351;28;20034;-71
2022/07/20 00:56:25;;;;;;;8.80;3.80;;;26.90;57.90;;;;;;4971914;28;20110;-69
2022/07/20 00:58:51;;;;;;;8.30;3.90;;;26.90;58.00;;;;;;4973645;28;20069;-69
2022/07/20 01:01:17;;;;;;;8.15;3.50;;;26.80;58.00;;;;;;4973175;28;20022;-69
2022/07/20 01:03:44;;;;;;;8.13;3.80;;;26.80;58.10;;;;;;4973013;28;20022;-69
2022/07/20 01:06:10;;;;;;;9.38;3.80;;;26.70;58.10;;;;;;4973235;28;20093;-69
2022/07/20 01:08:35;;;;;;;6.95;3.58;;;26.70;58.20;;;;;;4973122;28;20093;-68
2022/07/20 01:11:01;;;;;;;10.00;3.55;;;26.70;59.10;;;;;;4973015;28;20023;-69
2022/07/20 01:13:27;;;;;;;9.05;3.75;;;26.60;58.60;;;;;;4973252;28;20525;-71
2022/07/20 01:15:53;;;;;;;8.43;3.30;;;26.60;58.70;;;;;;4972790;28;20113;-69
2022/07/20 01:18:19;;;;;;;9.80;4.22;;;26.50;59.00;;;;;;4973429;28;20139;-69
2022/07/20 01:20:47;;;;;;;10.05;4.25;;;26.40;59.00;;;;;;4973323;28;20035;-67
2022/07/20 01:23:14;;;;;;;6.43;3.58;;;26.40;59.30;;;;;;4976282;28;20026;-69
2022/07/20 01:25:39;;;;;;;10.65;3.47;;;26.40;59.40;;;;;;4975554;28;20041;-71
2022/07/20 01:28:07;;;;;;;9.55;3.45;;;26.30;59.70;;;;;;4974235;28;20035;-68
2022/07/20 01:30:32;;;;;;;9.27;4.00;;;26.20;59.90;;;;;;4975420;28;20026;-69
2022/07/20 01:32:58;;;;;;;7.18;3.85;;;26.20;59.90;;;;;;4976956;28;20149;-71
2022/07/20 01:35:23;;;;;;;9.70;4.10;;;26.10;60.00;;;;;;4976763;28;20369;-67
2022/07/20 01:37:49;;;;;;;9.93;3.53;;;26.10;60.20;;;;;;4976959;28;20030;-67
2022/07/20 01:40:15;;;;;;;8.15;3.65;;;26.00;60.40;;;;;;4976946;28;20480;-68
2022/07/20 01:42:40;;;;;;;7.43;3.97;;;26.00;60.40;;;;;;4976608;28;20436;-68
2022/07/20 01:45:06;;;;;;;5.45;3.47;;;25.90;60.60;;;;;;4975971;28;20404;-69
2022/07/20 01:47:32;;;;;;;9.75;4.10;;;25.90;60.70;;;;;;4975925;28;20030;-68
2022/07/20 01:49:58;;;;;;;9.38;3.40;;;25.80;60.70;;;;;;4976717;28;20414;-68
2022/07/20 01:52:23;;;;;;;7.38;3.70;;;25.80;61.00;;;;;;4976471;28;20109;-70
2022/07/20 01:54:49;;;;;;;9.10;3.50;;;25.70;61.10;;;;;;4976087;28;20097;-68
2022/07/20 01:57:15;;;;;;;11.10;3.78;;;25.70;61.30;;;;;;4974951;28;20106;-68
2022/07/20 01:59:40;;;;;;;8.57;3.90;;;25.70;61.40;;;;;;4974648;28;20145;-69
2022/07/20 02:02:06;;;;;;;10.57;3.78;;;25.60;61.40;;;;;;4976069;28;20037;-70
2022/07/20 02:04:32;;;;;;;9.65;4.28;;;25.60;61.70;;;;;;4974875;28;20026;-68
2022/07/20 02:06:57;;;;;;;8.57;3.47;;;25.50;61.90;;;;;;4976066;28;20106;-70
2022/07/20 02:09:23;;;;;;;9.40;4.25;;;25.50;62.20;;;;;;4974805;28;20027;-70
2022/07/20 02:11:48;;;;;;;8.05;3.80;;;25.50;62.20;;;;;;4976225;28;20027;-68
2022/07/20 02:14:14;;;;;;;10.20;4.00;;;25.40;62.50;;;;;;4975680;28;20050;-67
2022/07/20 02:16:40;;;;;;;9.18;4.18;;;25.40;62.70;;;;;;4975690;28;20078;-69
2022/07/20 02:19:05;;;;;;;11.05;4.32;;;25.30;62.80;;;;;;4976003;28;20078;-68
2022/07/20 02:21:31;;;;;;;6.78;4.40;;;25.30;63.20;;;;;;4975670;28;20061;-68
2022/07/20 02:23:57;;;;;;;12.50;6.63;;;25.20;64.30;;;;;;4975945;28;20446;-70
2022/07/20 02:26:24;;;;;;;17.23;8.18;;;25.10;69.80;;;;;;4976045;28;20465;-67
2022/07/20 02:28:50;;;;;;;21.63;9.10;;;25.00;74.70;;;;;;4975464;28;20038;-69
2022/07/20 02:31:18;;;;;;;17.10;9.05;;;24.90;77.10;;;;;;4976032;28;20070;-68
2022/07/20 02:33:43;;;;;;;22.70;10.60;;;24.70;81.00;;;;;;4975703;28;20023;-68
2022/07/20 02:36:09;;;;;;;24.35;12.75;;;24.60;88.00;;;;;;4975747;28;20038;-67
2022/07/20 02:38:35;;;;;;;30.08;14.75;;;24.40;91.30;;;;;;4974054;28;20019;-68
2022/07/20 02:41:00;;;;;;;27.67;14.65;;;24.40;92.70;;;;;;4975088;28;20019;-68
2022/07/20 02:43:27;;;;;;;25.80;15.07;;;24.20;93.90;;;;;;4975614;28;20062;-66
2022/07/20 02:45:53;;;;;;;30.25;15.45;;;24.10;95.10;;;;;;4975347;28;20404;-67
2022/07/20 02:48:18;;;;;;;27.05;14.63;;;24.00;95.80;;;;;;4973975;28;20130;-69
2022/07/20 02:50:44;;;;;;;32.92;16.60;;;24.00;96.90;;;;;;4973909;28;20065;-67
2022/07/20 02:53:12;;;;;;;28.30;16.58;;;23.90;97.30;;;;;;4975296;28;20077;-67
2022/07/20 02:55:39;;;;;;;29.08;16.08;;;23.80;98.00;;;;;;4974995;28;20050;-69
2022/07/20 02:58:05;;;;;;;33.45;17.52;;;23.80;98.80;;;;;;4974940;28;20105;-68
2022/07/20 03:00:31;;;;;;;32.33;18.25;;;23.70;99.00;;;;;;4973700;28;20058;-69
2022/07/20 03:02:57;;;;;;;28.02;16.35;;;23.70;99.50;;;;;;4975322;28;20058;-67
2022/07/20 03:05:24;;;;;;;32.42;17.85;;;23.60;99.90;;;;;;4975285;28;20022;-67
2022/07/20 03:07:49;;;;;;;31.88;18.38;;;23.60;99.90;;;;;;4975113;28;20070;-68
2022/07/20 03:10:16;;;;;;;33.70;19.02;;;23.50;99.90;;;;;;4974761;28;20061;-67
2022/07/20 03:12:41;;;;;;;32.28;18.05;;;23.40;99.90;;;;;;4973310;28;20030;-67
2022/07/20 03:15:08;;;;;;;33.38;18.15;;;23.40;99.90;;;;;;4975106;28;20346;-68
2022/07/20 03:17:48;;;;;;;32.03;18.08;;;23.40;99.90;;;;;;4975079;28;20041;-67
2022/07/20 03:20:21;;;;;;;35.13;18.85;;;23.30;99.90;;;;;;4974706;28;20066;-68
2022/07/20 03:22:46;;;;;;;32.30;18.77;;;23.30;99.90;;;;;;4974673;28;20030;-69
2022/07/20 03:25:12;;;;;;;37.97;18.65;;;23.20;99.90;;;;;;4974693;28;20031;-67
2022/07/20 03:27:38;;;;;;;30.98;18.00;;;23.10;99.90;;;;;;4974572;28;20069;-71
2022/07/20 03:30:05;;;;;;;37.53;19.85;;;23.10;99.90;;;;;;4974746;28;20085;-67
2022/07/20 03:32:31;;;;;;;33.85;19.27;;;23.00;99.90;;;;;;4974161;28;20027;-67
2022/07/20 03:34:57;;;;;;;35.83;19.15;;;23.00;99.90;;;;;;4975436;28;20347;-68
2022/07/20 03:37:23;;;;;;;34.45;19.25;;;22.90;99.90;;;;;;4992683;28;20077;-67
2022/07/20 03:39:48;;;;;;;40.10;20.83;;;22.90;99.90;;;;;;4992276;28;20026;-69
2022/07/20 03:42:14;;;;;;;35.50;20.40;;;22.90;99.90;;;;;;4993383;28;20022;-67
2022/07/20 03:44:40;;;;;;;37.70;21.25;;;22.80;99.90;;;;;;4993834;28;20023;-66
2022/07/20 03:47:05;;;;;;;37.25;20.73;;;22.70;99.90;;;;;;4993202;28;20042;-66
2022/07/20 03:49:31;;;;;;;30.15;19.20;;;22.70;99.90;;;;;;4993268;28;20080;-68
2022/07/20 03:51:57;;;;;;;36.85;21.52;;;22.70;99.90;;;;;;4990126;28;20520;-68
2022/07/20 03:54:22;;;;;;;37.67;22.13;;;22.60;99.90;;;;;;4970919;28;20066;-68
2022/07/20 03:56:48;;;;;;;39.58;22.27;;;22.60;99.90;;;;;;4974253;28;20030;-67
2022/07/20 03:59:13;;;;;;;38.80;21.08;;;22.60;99.90;;;;;;4972679;28;20015;-70
2022/07/20 04:01:39;;;;;;;36.67;21.73;;;22.50;99.90;;;;;;4973873;28;20035;-68
2022/07/20 04:04:05;;;;;;;39.78;22.65;;;22.50;99.90;;;;;;4973980;28;20325;-70
2022/07/20 04:06:31;;;;;;;37.30;23.42;;;22.50;99.90;;;;;;4973926;28;20050;-68
2022/07/20 04:08:56;;;;;;;34.83;21.75;;;22.50;99.90;;;;;;4971837;28;20093;-67
2022/07/20 04:11:22;;;;;;;40.95;24.30;;;22.50;99.90;;;;;;4973629;28;20038;-67
2022/07/20 04:13:48;;;;;;;38.47;23.30;;;22.50;99.90;;;;;;4973833;28;20030;-69
2022/07/20 04:16:13;;;;;;;40.75;23.70;;;22.50;99.90;;;;;;4972150;28;20034;-67
2022/07/20 04:18:39;;;;;;;39.83;25.55;;;22.40;99.90;;;;;;4973587;28;20030;-67
2022/07/20 04:21:05;;;;;;;42.08;25.17;;;22.40;99.90;;;;;;4972595;28;20117;-69
2022/07/20 04:23:31;;;;;;;42.83;26.45;;;22.30;99.90;;;;;;4975413;28;20109;-67
2022/07/20 04:25:56;;;;;;;42.13;27.17;;;22.30;99.90;;;;;;4975169;28;20428;-67
2022/07/20 04:28:22;;;;;;;41.42;26.38;;;22.40;99.90;;;;;;4973236;28;20073;-67
2022/07/20 04:30:48;;;;;;;43.03;26.25;;;22.40;99.90;;;;;;4973715;28;20058;-68
2022/07/20 04:33:14;;;;;;;43.33;27.65;;;22.50;99.90;;;;;;4973420;28;20108;-69
2022/07/20 04:35:39;;;;;;;46.08;27.08;;;22.50;99.90;;;;;;4972930;28;20372;-70
2022/07/20 04:38:05;;;;;;;41.10;26.10;;;22.60;99.90;;;;;;4973074;28;20035;-67
2022/07/20 04:40:30;;;;;;;40.85;26.35;;;22.60;99.90;;;;;;4973255;28;20034;-68
2022/07/20 04:42:56;;;;;;;43.17;26.45;;;22.60;99.90;;;;;;4973535;28;20033;-67
2022/07/20 04:45:21;;;;;;;34.58;22.90;;;22.70;99.90;;;;;;4971659;28;20051;-68
2022/07/20 04:47:47;;;;;;;41.42;26.38;;;22.70;99.90;;;;;;4973191;28;20034;-69
2022/07/20 04:50:13;;;;;;;39.88;26.10;;;22.80;99.90;;;;;;4973281;28;20290;-68
2022/07/20 04:52:39;;;;;;;40.83;26.70;;;22.80;99.90;;;;;;4973089;28;20037;-68
2022/07/20 04:55:05;;;;;;;47.15;27.33;;;22.80;99.90;;;;;;4973321;28;20031;-71
2022/07/20 04:57:31;;;;;;;41.25;26.48;;;22.90;99.90;;;;;;4973204;28;20352;-67
2022/07/20 04:59:57;;;;;;;45.83;25.88;;;22.90;99.90;;;;;;4973119;28;20063;-68
2022/07/20 05:02:22;;;;;;;40.63;26.65;;;23.00;99.90;;;;;;4973087;28;20027;-68
2022/07/20 05:04:48;;;;;;;39.33;25.92;;;23.00;99.90;;;;;;4971989;28;20035;-71
2022/07/20 05:07:14;;;;;;;41.65;26.63;;;23.20;99.90;;;;;;4972740;28;20039;-69
2022/07/20 05:09:40;;;;;;;42.08;25.27;;;23.30;99.90;;;;;;4973330;28;20038;-67
2022/07/20 05:12:06;;;;;;;39.47;24.33;;;23.30;99.90;;;;;;4973304;28;20106;-68
2022/07/20 05:14:31;;;;;;;39.42;24.15;;;23.40;99.90;;;;;;4972935;28;20107;-69
2022/07/20 05:16:57;;;;;;;39.72;25.17;;;23.40;99.90;;;;;;4972110;28;20030;-67
2022/07/20 05:19:23;;;;;;;40.35;25.02;;;23.40;99.90;;;;;;4973161;28;20527;-73
2022/07/20 05:21:48;;;;;;;39.35;23.90;;;23.40;99.90;;;;;;4972929;28;20119;-68
2022/07/20 05:24:14;;;;;;;37.35;23.75;;;23.50;99.90;;;;;;4972415;28;20030;-68
2022/07/20 05:26:40;;;;;;;37.45;23.17;;;23.50;99.90;;;;;;4973249;28;20038;-68
2022/07/20 05:29:05;;;;;;;39.15;24.70;;;23.50;99.90;;;;;;4972781;28;20076;-66
2022/07/20 05:31:31;;;;;;;35.00;23.02;;;23.50;99.90;;;;;;4973259;28;20035;-68
2022/07/20 05:33:57;;;;;;;36.97;23.17;;;23.60;99.90;;;;;;4973041;28;20154;-67
2022/07/20 05:36:23;;;;;;;36.15;21.88;;;23.60;99.90;;;;;;4972992;28;20027;-68
2022/07/20 05:38:49;;;;;;;33.47;21.25;;;23.80;99.90;;;;;;4973400;28;20027;-69
2022/07/20 05:41:14;;;;;;;33.55;20.77;;;23.90;99.90;;;;;;4973186;28;20031;-67
2022/07/20 05:43:40;;;;;;;32.10;20.60;;;24.00;99.90;;;;;;4973123;28;20496;-67
2022/07/20 05:46:06;;;;;;;31.17;19.33;;;24.10;99.90;;;;;;4972970;28;20043;-69
2022/07/20 05:48:32;;;;;;;30.92;18.77;;;24.10;99.90;;;;;;4973076;28;20038;-67
2022/07/20 05:50:57;;;;;;;30.52;17.77;;;24.20;99.90;;;;;;4972870;28;20066;-68
2022/07/20 05:53:23;;;;;;;32.53;17.48;;;24.30;99.90;;;;;;4972723;28;20530;-69
2022/07/20 05:55:48;;;;;;;30.65;16.95;;;24.40;99.90;;;;;;4972574;28;20018;-67
2022/07/20 05:58:14;;;;;;;32.25;17.13;;;24.50;99.90;;;;;;4973025;28;20054;-67
2022/07/20 06:00:40;;;;;;;31.17;17.10;;;24.50;99.90;;;;;;4972685;28;20109;-68
2022/07/20 06:03:06;;;;;;;31.65;16.85;;;24.40;99.90;;;;;;4972834;28;20045;-70
2022/07/20 06:05:32;;;;;;;31.25;17.15;;;24.30;99.90;;;;;;4972873;28;20034;-68
2022/07/20 06:08:01;;;;;;;27.80;15.57;;;24.20;99.90;;;;;;4971110;28;20097;-68
2022/07/20 06:10:29;;;;;;;29.13;15.43;;;24.20;99.90;;;;;;4972813;28;20128;-68
2022/07/20 06:12:55;;;;;;;28.30;15.18;;;24.30;99.90;;;;;;4972954;28;20469;-71
2022/07/20 06:15:24;;;;;;;27.60;15.57;;;24.20;99.90;;;;;;4974295;28;20019;-69
2022/07/20 06:17:51;;;;;;;26.13;14.10;;;24.20;99.90;;;;;;4975946;28;20417;-67
2022/07/20 06:20:17;;;;;;;26.40;14.30;;;24.30;99.90;;;;;;4976423;28;20222;-71
2022/07/20 06:22:43;;;;;;;28.55;15.32;;;24.30;99.90;;;;;;4976260;28;20106;-67
2022/07/20 06:25:12;;;;;;;26.70;14.88;;;24.30;99.90;;;;;;4975829;28;20362;-68
2022/07/20 06:27:38;;;;;;;23.13;13.35;;;24.30;99.90;;;;;;4975717;28;20049;-69
2022/07/20 06:30:06;;;;;;;28.25;14.60;;;24.30;99.90;;;;;;4976148;28;20022;-69
2022/07/20 06:32:32;;;;;;;27.15;14.52;;;24.30;99.90;;;;;;4976068;28;20026;-68
2022/07/20 06:34:58;;;;;;;26.05;13.57;;;24.30;99.90;;;;;;4975724;28;20069;-68
2022/07/20 06:37:23;;;;;;;26.08;13.77;;;24.30;99.90;;;;;;4975632;28;20050;-68
2022/07/20 06:39:50;;;;;;;24.15;13.23;;;24.30;99.90;;;;;;4975734;28;20034;-71
2022/07/20 06:42:16;;;;;;;23.75;13.45;;;24.40;99.90;;;;;;4975842;28;20042;-69
2022/07/20 06:44:43;;;;;;;25.65;13.13;;;24.50;99.90;;;;;;4975688;28;20026;-68
2022/07/20 06:47:08;;;;;;;22.20;11.95;;;24.50;99.90;;;;;;4973797;28;20481;-67
2022/07/20 06:49:34;;;;;;;28.50;13.20;;;24.50;99.90;;;;;;4975400;28;20030;-69
2022/07/20 06:52:00;;;;;;;24.63;12.15;;;24.50;99.90;;;;;;4975538;28;20031;-68
2022/07/20 06:54:26;;;;;;;28.30;11.93;;;24.40;99.90;;;;;;4975448;28;20027;-68
2022/07/20 06:56:52;;;;;;;23.50;11.63;;;24.50;99.90;;;;;;4975390;28;20059;-70
2022/07/20 06:59:18;;;;;;;21.85;11.90;;;24.50;99.90;;;;;;4975510;28;20019;-68
2022/07/20 07:01:44;;;;;;;25.00;12.40;;;24.70;99.90;;;;;;4975084;28;20027;-67
2022/07/20 07:04:10;;;;;;;23.63;11.13;;;25.10;99.90;;;;;;4973538;28;20037;-68
2022/07/20 07:06:35;;;;;;;25.08;11.77;;;25.10;99.90;;;;;;4972672;28;20027;-69
2022/07/20 07:09:01;;;;;;;21.02;11.40;;;25.40;99.90;;;;;;4974286;28;20113;-72
2022/07/20 07:11:26;;;;;;;22.38;10.10;;;25.70;99.90;;;;;;4975230;28;20033;-68
2022/07/20 07:13:52;;;;;;;21.50;11.40;;;25.40;99.90;;;;;;4973794;28;20059;-73
2022/07/20 07:16:18;;;;;;;20.25;10.18;;;25.70;99.90;;;;;;4973578;28;20027;-67
2022/07/20 07:18:44;;;;;;;21.40;10.27;;;25.90;99.90;;;;;;4973641;28;20357;-67
2022/07/20 07:21:09;;;;;;;18.73;8.73;;;26.10;99.70;;;;;;4975177;28;20035;-69
2022/07/20 07:23:35;;;;;;;20.90;9.75;;;26.10;99.30;;;;;;4975135;28;20022;-71
2022/07/20 07:26:01;;;;;;;19.25;9.90;;;26.10;99.30;;;;;;4970169;28;20834;-68
2022/07/20 07:28:26;;;;;;;20.10;9.90;;;26.10;99.20;;;;;;4973898;28;20111;-68
2022/07/20 07:30:52;;;;;;;18.52;9.75;;;26.10;99.30;;;;;;4974646;28;20030;-70
2022/07/20 07:33:19;;;;;;;19.95;8.57;;;26.00;98.80;;;;;;4973656;28;20026;-68
2022/07/20 07:35:45;;;;;;;21.27;10.02;;;25.90;99.30;;;;;;4974833;28;20022;-68
2022/07/20 07:38:10;;;;;;;25.27;10.23;;;26.00;99.20;;;;;;4974616;28;20086;-69
2022/07/20 07:40:36;;;;;;;22.25;9.40;;;26.00;99.20;;;;;;4977183;28;20053;-67
2022/07/20 07:43:01;;;;;;;19.00;8.88;;;25.90;99.10;;;;;;4979757;28;20098;-67
2022/07/20 07:45:27;;;;;;;18.02;8.77;;;25.80;99.00;;;;;;4978131;28;20054;-71
2022/07/20 07:47:52;;;;;;;17.50;8.40;;;25.90;98.90;;;;;;4974624;28;20049;-68
2022/07/20 07:50:18;;;;;;;23.10;9.80;;;26.10;98.70;;;;;;4974566;28;20023;-69
2022/07/20 07:52:44;;;;;;;13.82;7.32;;;26.30;98.20;;;;;;4973420;28;20025;-71
2022/07/20 07:55:10;;;;;;;22.60;9.48;;;26.50;98.00;;;;;;4977503;28;20049;-70
2022/07/20 07:57:36;;;;;;;19.83;9.27;;;26.70;97.70;;;;;;4992547;28;20444;-70
2022/07/20 08:00:04;;;;;;;19.17;8.60;;;26.70;97.20;;;;;;4992337;28;20072;-68
2022/07/20 08:02:30;;;;;;;20.10;9.05;;;26.70;97.10;;;;;;4990131;28;20026;-69
2022/07/20 08:04:55;;;;;;;20.50;9.40;;;26.80;96.80;;;;;;4988344;28;20351;-68
2022/07/20 08:07:21;;;;;;;19.50;8.90;;;26.70;96.80;;;;;;4988283;28;20034;-68
2022/07/20 08:09:46;;;;;;;21.85;9.10;;;26.80;96.30;;;;;;4986700;28;20042;-67
2022/07/20 08:12:12;;;;;;;19.23;8.98;;;26.80;96.60;;;;;;4985279;28;20022;-69
2022/07/20 08:14:38;;;;;;;19.45;9.13;;;27.00;96.00;;;;;;4986297;28;20022;-68
2022/07/20 08:17:03;;;;;;;22.92;9.68;;;27.00;95.80;;;;;;4988411;28;20025;-67
2022/07/20 08:19:29;;;;;;;23.13;9.40;;;27.10;95.80;;;;;;4988119;28;20448;-67
2022/07/20 08:21:54;;;;;;;20.73;9.35;;;27.50;95.40;;;;;;4988149;28;20034;-67
2022/07/20 08:24:20;;;;;;;18.88;8.50;;;27.70;94.80;;;;;;4968607;28;20050;-67
2022/07/20 08:26:45;;;;;;;19.45;8.00;;;28.20;94.40;;;;;;4974094;28;20078;-68
2022/07/20 08:29:11;;;;;;;18.38;8.05;;;28.60;93.40;;;;;;4974001;28;20039;-70
2022/07/20 08:31:36;;;;;;;18.38;8.85;;;29.00;92.90;;;;;;4973934;28;20027;-69
2022/07/20 08:34:02;;;;;;;21.20;8.70;;;29.60;92.20;;;;;;4974260;28;20781;-69
2022/07/20 08:36:28;;;;;;;18.33;9.27;;;30.50;90.80;;;;;;4973719;28;20050;-68
2022/07/20 08:38:53;;;;;;;19.73;8.77;;;30.90;89.70;;;;;;4973168;28;20031;-68
2022/07/20 08:41:20;;;;;;;23.63;9.23;;;31.20;87.50;;;;;;4973947;28;20033;-67
2022/07/20 08:43:45;;;;;;;19.52;8.52;;;31.50;86.30;;;;;;4973952;28;20022;-70
2022/07/20 08:46:12;;;;;;;15.77;7.07;;;31.50;85.40;;;;;;4973391;28;20049;-67
2022/07/20 08:48:41;;;;;;;15.18;7.18;;;32.00;83.50;;;;;;4976087;28;20121;-70
2022/07/20 08:51:06;;;;;;;20.55;7.90;;;32.30;80.80;;;;;;4973715;28;20014;-70
2022/07/20 08:53:32;;;;;;;16.48;7.45;;;32.20;81.10;;;;;;4973735;28;20033;-68
2022/07/20 08:55:57;;;;;;;17.08;6.00;;;32.30;81.30;;;;;;4973314;28;20400;-68
2022/07/20 08:58:23;;;;;;;16.48;6.78;;;32.80;78.50;;;;;;4973687;28;20476;-69
2022/07/20 09:00:48;;;;;;;17.02;6.57;;;32.70;78.50;;;;;;4973636;28;20078;-68
2022/07/20 09:03:14;;;;;;;16.30;7.00;;;32.40;78.70;;;;;;4973591;28;20018;-71
2022/07/20 09:05:41;;;;;;;17.50;6.35;;;32.20;78.70;;;;;;4973206;28;20030;-70
2022/07/20 09:08:11;;;;;;;17.27;6.03;;;32.10;78.60;;;;;;4972374;28;20042;-68
2022/07/20 09:10:39;;;;;;;16.80;5.85;;;32.40;77.10;;;;;;4972686;28;20105;-68
2022/07/20 09:13:12;;;;;;;13.30;4.65;;;32.30;76.70;;;;;;4972508;28;20552;-67
2022/07/20 09:15:44;;;;;;;12.85;4.78;;;32.40;75.60;;;;;;4972610;28;20038;-71
2022/07/20 09:18:12;;;;;;;11.38;3.80;;;32.70;75.20;;;;;;4972946;28;20104;-70
2022/07/20 09:21:12;;;;;;;8.35;4.15;;;33.10;73.80;;;;;;4972742;28;20474;-68
2022/07/20 09:23:41;;;;;;;9.48;3.72;;;33.30;72.70;;;;;;4972047;28;20046;-70
2022/07/20 09:26:09;;;;;;;11.25;3.40;;;33.20;71.70;;;;;;4973045;28;20027;-68
2022/07/20 09:28:48;;;;;;;9.05;3.10;;;33.40;70.80;;;;;;4973368;28;20097;-69
2022/07/20 09:31:17;;;;;;;13.85;3.40;;;33.40;70.50;;;;;;4973113;28;20027;-68
2022/07/20 09:33:53;;;;;;;8.25;2.88;;;32.90;70.90;;;;;;4973046;28;20027;-69
2022/07/20 09:36:22;;;;;;;12.30;3.53;;;32.30;72.30;;;;;;4973358;28;20030;-70
2022/07/20 09:38:48;;;;;;;8.18;3.30;;;32.30;73.10;;;;;;4972853;28;20027;-68
2022/07/20 09:41:31;;;;;;;12.50;3.35;;;33.10;71.40;;;;;;4973130;28;20034;-69
2022/07/20 09:43:59;;;;;;;7.63;3.05;;;34.30;69.10;;;;;;4973424;28;20362;-69
2022/07/20 09:46:32;;;;;;;13.00;3.35;;;34.80;68.10;;;;;;4972905;28;20055;-68
2022/07/20 09:49:06;;;;;;;9.65;3.28;;;34.70;68.10;;;;;;4973626;28;20368;-68
2022/07/20 09:51:34;;;;;;;9.75;3.78;;;34.30;68.40;;;;;;4977000;28;20137;-70
2022/07/20 09:54:03;;;;;;;10.45;4.00;;;34.00;69.80;;;;;;4976910;28;20031;-71
2022/07/20 09:56:30;;;;;;;9.45;3.35;;;34.10;70.20;;;;;;4976893;28;20082;-68
2022/07/20 09:58:58;;;;;;;9.13;4.10;;;34.10;70.50;;;;;;4976449;28;20023;-70
2022/07/20 10:01:26;;;;;;;11.57;3.85;;;34.20;70.80;;;;;;4970960;28;20029;-70
2022/07/20 10:03:54;;;;;;;14.15;4.60;;;34.30;71.10;;;;;;4975861;28;20019;-71
2022/07/20 10:06:21;;;;;;;10.77;4.10;;;34.50;70.50;;;;;;4976141;28;20035;-68
2022/07/20 10:08:49;;;;;;;10.77;4.70;;;35.10;69.70;;;;;;4976567;28;20042;-68
2022/07/20 10:11:17;;;;;;;13.18;5.07;;;35.80;69.60;;;;;;4976569;28;20027;-69
2022/07/20 10:13:44;;;;;;;12.23;5.47;;;36.10;68.20;;;;;;4976295;28;20469;-69
2022/07/20 10:16:35;;;;;;;14.32;5.78;;;36.30;67.60;;;;;;4972836;28;20394;-67
2022/07/20 10:19:02;;;;;;;11.60;5.20;;;36.30;67.20;;;;;;4959172;28;20027;-68
2022/07/20 10:21:31;;;;;;;13.40;5.60;;;36.00;67.00;;;;;;4976760;28;20044;-70
2022/07/20 10:24:30;;;;;;;12.23;6.13;;;35.50;66.90;;;;;;4976176;28;20026;-71
2022/07/20 10:27:02;;;;;;;13.27;5.07;;;34.80;67.60;;;;;;4976324;28;20027;-67
2022/07/20 10:29:33;;;;;;;12.10;5.13;;;34.40;68.50;;;;;;4976394;28;20027;-67
2022/07/20 10:32:23;;;;;;;10.77;4.43;;;34.00;69.10;;;;;;4976005;28;20030;-70
2022/07/20 10:34:54;;;;;;;13.43;4.20;;;33.80;69.30;;;;;;4976152;28;20826;-68
2022/07/20 10:37:37;;;;;;;9.43;4.35;;;33.80;69.20;;;;;;4976048;28;20026;-67
2022/07/20 10:40:08;;;;;;;12.65;3.65;;;34.20;69.10;;;;;;4975901;28;20085;-70
2022/07/20 10:42:40;;;;;;;12.03;3.40;;;34.70;67.70;;;;;;4975499;28;20030;-68
2022/07/20 10:45:17;;;;;;;9.57;3.28;;;35.10;66.50;;;;;;4975529;28;20113;-67
2022/07/20 10:47:51;;;;;;;12.70;3.97;;;35.00;67.20;;;;;;4975619;28;20035;-67
2022/07/20 10:50:36;;;;;;;10.02;3.33;;;35.00;68.00;;;;;;4970459;28;20030;-67
2022/07/20 10:53:10;;;;;;;8.82;2.85;;;35.10;65.90;;;;;;4975560;28;20019;-69
2022/07/20 10:55:36;;;;;;;14.00;3.80;;;34.80;66.50;;;;;;4975917;28;20034;-69
2022/07/20 10:58:05;;;;;;;9.57;4.15;;;34.80;67.10;;;;;;4975681;28;20401;-71
2022/07/20 11:00:34;;;;;;;12.07;3.47;;;35.00;66.70;;;;;;4975446;28;20824;-68
2022/07/20 11:03:00;;;;;;;11.85;3.92;;;35.60;66.10;;;;;;4979142;28;20046;-67
2022/07/20 11:05:26;;;;;;;10.07;4.15;;;36.50;65.50;;;;;;4976888;28;20054;-67
2022/07/20 11:07:51;;;;;;;9.70;4.05;;;36.60;65.30;;;;;;4975270;28;20089;-67
2022/07/20 11:10:26;;;;;;;10.00;4.35;;;37.00;64.50;;;;;;4975083;28;20122;-67
2022/07/20 11:12:59;;;;;;;10.18;5.10;;;36.80;64.60;;;;;;4975256;28;20027;-67
2022/07/20 11:15:48;;;;;;;10.38;4.50;;;36.40;64.30;;;;;;4975418;28;20050;-67
2022/07/20 11:18:18;;;;;;;12.35;4.53;;;35.70;65.30;;;;;;4975158;28;20058;-68
2022/07/20 11:20:50;;;;;;;13.50;5.00;;;34.90;66.40;;;;;;4975310;28;20085;-68
2022/07/20 11:23:20;;;;;;;13.73;5.65;;;34.00;68.10;;;;;;4975240;28;20106;-67
2022/07/20 11:25:52;;;;;;;11.55;4.93;;;33.60;68.80;;;;;;4974867;28;20383;-67
2022/07/20 11:28:26;;;;;;;12.48;5.18;;;33.80;68.80;;;;;;4975027;28;20035;-68
2022/07/20 11:30:52;;;;;;;12.18;4.93;;;33.40;69.70;;;;;;4974931;28;20054;-71
2022/07/20 11:33:22;;;;;;;12.88;5.00;;;32.90;71.10;;;;;;4974034;28;20030;-68
2022/07/20 11:35:48;;;;;;;13.35;5.30;;;33.40;70.20;;;;;;4974985;28;20074;-67
2022/07/20 11:38:13;;;;;;;11.88;4.60;;;34.10;68.70;;;;;;4975243;28;20035;-67
2022/07/20 11:40:39;;;;;;;13.85;5.38;;;34.40;68.00;;;;;;4974854;28;20510;-68
2022/07/20 11:43:06;;;;;;;13.48;5.72;;;34.60;67.70;;;;;;4974674;28;20401;-68
2022/07/20 11:45:32;;;;;;;12.85;4.88;;;34.30;67.90;;;;;;4974639;28;20053;-67
2022/07/20 11:47:57;;;;;;;9.82;5.03;;;33.80;68.80;;;;;;4972050;28;20369;-69
2022/07/20 11:50:32;;;;;;;16.27;5.35;;;33.40;69.60;;;;;;4974590;28;20073;-71
2022/07/20 11:52:57;;;;;;;15.30;5.20;;;33.00;70.10;;;;;;4975016;28;20467;-68
2022/07/20 11:55:34;;;;;;;11.40;4.88;;;32.60;70.80;;;;;;4974696;28;20026;-70
2022/07/20 11:57:59;;;;;;;12.27;4.60;;;32.10;71.30;;;;;;4974862;28;20125;-68
2022/07/20 12:00:29;;;;;;;11.77;4.55;;;31.60;72.60;;;;;;4973953;28;20102;-68
2022/07/20 12:02:55;;;;;;;14.50;5.20;;;31.10;73.40;;;;;;4974304;28;20015;-69
2022/07/20 12:05:21;;;;;;;9.90;4.93;;;30.90;73.50;;;;;;4974058;28;20026;-69
2022/07/20 12:10:34;;;;;;;13.02;4.82;;;30.90;73.60;;;;;;4974151;28;20130;-67
2022/07/20 12:13:05;;;;;;;8.20;3.67;;;31.20;74.20;;;;;;4974255;28;20023;-70
2022/07/20 12:15:31;;;;;;;8.35;2.83;;;31.40;72.60;;;;;;4974279;28;20109;-68
2022/07/20 12:17:57;;;;;;;10.02;3.63;;;31.50;72.20;;;;;;4972997;28;20062;-69
2022/07/20 12:20:24;;;;;;;5.93;2.45;;;32.20;71.70;;;;;;4974183;28;20495;-68
2022/07/20 12:22:56;;;;;;;10.98;3.00;;;33.00;69.50;;;;;;4973574;28;20096;-68
2022/07/20 12:25:32;;;;;;;13.13;3.58;;;33.40;68.80;;;;;;4973944;28;20074;-69
2022/07/20 12:27:58;;;;;;;9.48;3.13;;;33.80;69.10;;;;;;4974105;28;20053;-67
2022/07/20 12:30:29;;;;;;;8.82;3.40;;;34.10;68.00;;;;;;4974020;28;20015;-67
2022/07/20 12:33:11;;;;;;;12.63;3.25;;;33.80;68.60;;;;;;4974057;28;20057;-67
2022/07/20 12:35:38;;;;;;;11.05;3.42;;;32.90;69.10;;;;;;4973985;28;20086;-67
2022/07/20 12:38:04;;;;;;;11.35;4.15;;;32.00;71.20;;;;;;4973909;28;20080;-68
2022/07/20 12:40:49;;;;;;;10.65;4.30;;;31.10;72.80;;;;;;4974196;28;20062;-68